sensor_id;sensor_type;location;lat;lon;timestamp;temperature;humidity
49489;SHT31;35382;51.484;11.476;2023-05-10T00:01:12;9.47;77.64
49489;SHT31;35382;51.484;11.476;2023-05-10T00:02:53;9.74;76.92
49489;SHT31;35382;51.484;11.476;2023-05-10T00:04:34;10.34;72.41
49489;SHT31;35382;51.484;11.476;2023-05-10T00:06:15;10.79;70.92
49489;SHT31;35382;51.484;11.476;2023-05-10T00:07:56;10.98;70.21
49489;SHT31;35382;51.484;11.476;2023-05-10T00:09:37;11.05;70.50
49489;SHT31;35382;51.484;11.476;2023-05-10T00:11:18;11.15;69.59
49489;SHT31;35382;51.484;11.476;2023-05-10T00:12:59;11.06;70.20
49489;SHT31;35382;51.484;11.476;2023-05-10T00:14:40;11.33;69.18
49489;SHT31;35382;51.484;11.476;2023-05-10T00:16:21;11.59;68.11
49489;SHT31;35382;51.484;11.476;2023-05-10T00:18:02;11.36;69.00
49489;SHT31;35382;51.484;11.476;2023-05-10T00:19:43;11.40;68.78
49489;SHT31;35382;51.484;11.476;2023-05-10T00:21:23;11.18;69.90
49489;SHT31;35382;51.484;11.476;2023-05-10T00:23:04;11.18;69.72
49489;SHT31;35382;51.484;11.476;2023-05-10T00:24:45;10.86;71.22
49489;SHT31;35382;51.484;11.476;2023-05-10T00:26:26;11.02;70.78
49489;SHT31;35382;51.484;11.476;2023-05-10T00:28:10;10.91;70.59
49489;SHT31;35382;51.484;11.476;2023-05-10T00:29:52;10.82;71.67
49489;SHT31;35382;51.484;11.476;2023-05-10T00:31:33;10.61;71.86
49489;SHT31;35382;51.484;11.476;2023-05-10T00:33:14;10.44;72.82
49489;SHT31;35382;51.484;11.476;2023-05-10T00:34:55;10.48;71.87
49489;SHT31;35382;51.484;11.476;2023-05-10T00:36:36;10.33;73.77
49489;SHT31;35382;51.484;11.476;2023-05-10T00:38:16;10.25;73.77
49489;SHT31;35382;51.484;11.476;2023-05-10T00:39:58;10.16;74.09
49489;SHT31;35382;51.484;11.476;2023-05-10T00:41:39;9.79;76.20
49489;SHT31;35382;51.484;11.476;2023-05-10T00:43:21;9.47;77.80
49489;SHT31;35382;51.484;11.476;2023-05-10T00:45:02;9.57;77.66
49489;SHT31;35382;51.484;11.476;2023-05-10T00:46:44;9.19;79.65
49489;SHT31;35382;51.484;11.476;2023-05-10T00:48:26;9.09;79.81
49489;SHT31;35382;51.484;11.476;2023-05-10T00:50:08;9.19;79.59
49489;SHT31;35382;51.484;11.476;2023-05-10T00:51:50;9.18;79.31
49489;SHT31;35382;51.484;11.476;2023-05-10T00:53:31;8.98;80.76
49489;SHT31;35382;51.484;11.476;2023-05-10T00:55:13;8.89;81.26
49489;SHT31;35382;51.484;11.476;2023-05-10T00:56:54;8.79;81.31
49489;SHT31;35382;51.484;11.476;2023-05-10T00:58:38;8.78;81.48
49489;SHT31;35382;51.484;11.476;2023-05-10T01:00:20;8.79;81.67
49489;SHT31;35382;51.484;11.476;2023-05-10T01:02:01;8.60;82.37
49489;SHT31;35382;51.484;11.476;2023-05-10T01:03:44;8.48;82.82
49489;SHT31;35382;51.484;11.476;2023-05-10T01:05:25;8.51;82.85
49489;SHT31;35382;51.484;11.476;2023-05-10T01:07:07;8.60;82.74
49489;SHT31;35382;51.484;11.476;2023-05-10T01:08:48;8.51;82.94
49489;SHT31;35382;51.484;11.476;2023-05-10T01:10:30;8.45;83.16
49489;SHT31;35382;51.484;11.476;2023-05-10T01:12:11;8.23;84.22
49489;SHT31;35382;51.484;11.476;2023-05-10T01:13:56;8.31;83.89
49489;SHT31;35382;51.484;11.476;2023-05-10T01:15:38;8.07;84.95
49489;SHT31;35382;51.484;11.476;2023-05-10T01:17:21;8.26;84.25
49489;SHT31;35382;51.484;11.476;2023-05-10T01:19:37;8.34;83.80
49489;SHT31;35382;51.484;11.476;2023-05-10T01:23:18;8.17;84.24
49489;SHT31;35382;51.484;11.476;2023-05-10T01:33:19;7.71;86.21
49489;SHT31;35382;51.484;11.476;2023-05-10T01:35:11;7.66;86.32
49489;SHT31;35382;51.484;11.476;2023-05-10T01:36:59;7.73;86.55
49489;SHT31;35382;51.484;11.476;2023-05-10T01:38:58;7.50;86.81
49489;SHT31;35382;51.484;11.476;2023-05-10T01:42:49;7.46;87.35
49489;SHT31;35382;51.484;11.476;2023-05-10T01:44:47;7.46;87.69
49489;SHT31;35382;51.484;11.476;2023-05-10T01:46:39;7.52;87.42
49489;SHT31;35382;51.484;11.476;2023-05-10T01:48:20;7.47;87.62
49489;SHT31;35382;51.484;11.476;2023-05-10T01:50:04;7.47;87.83
49489;SHT31;35382;51.484;11.476;2023-05-10T01:51:50;7.67;86.87
49489;SHT31;35382;51.484;11.476;2023-05-10T01:53:37;7.50;87.79
49489;SHT31;35382;51.484;11.476;2023-05-10T01:55:20;7.76;86.86
49489;SHT31;35382;51.484;11.476;2023-05-10T01:57:05;7.90;86.63
49489;SHT31;35382;51.484;11.476;2023-05-10T01:58:47;7.90;86.18
49489;SHT31;35382;51.484;11.476;2023-05-10T02:00:29;7.95;85.80
49489;SHT31;35382;51.484;11.476;2023-05-10T02:02:12;7.86;86.73
49489;SHT31;35382;51.484;11.476;2023-05-10T02:03:55;7.89;86.61
49489;SHT31;35382;51.484;11.476;2023-05-10T02:05:39;7.87;86.64
49489;SHT31;35382;51.484;11.476;2023-05-10T02:07:21;8.00;86.09
49489;SHT31;35382;51.484;11.476;2023-05-10T02:09:04;8.04;86.12
49489;SHT31;35382;51.484;11.476;2023-05-10T02:10:47;8.01;86.06
49489;SHT31;35382;51.484;11.476;2023-05-10T02:12:31;8.21;84.95
49489;SHT31;35382;51.484;11.476;2023-05-10T02:14:13;8.20;85.02
49489;SHT31;35382;51.484;11.476;2023-05-10T02:15:56;8.05;85.63
49489;SHT31;35382;51.484;11.476;2023-05-10T02:17:38;8.04;85.82
49489;SHT31;35382;51.484;11.476;2023-05-10T02:19:21;8.07;85.41
49489;SHT31;35382;51.484;11.476;2023-05-10T02:21:02;7.89;86.72
49489;SHT31;35382;51.484;11.476;2023-05-10T02:22:44;7.84;87.12
49489;SHT31;35382;51.484;11.476;2023-05-10T02:24:28;7.89;87.02
49489;SHT31;35382;51.484;11.476;2023-05-10T02:26:10;7.80;87.32
49489;SHT31;35382;51.484;11.476;2023-05-10T02:27:55;7.87;86.90
49489;SHT31;35382;51.484;11.476;2023-05-10T02:29:36;7.97;86.79
49489;SHT31;35382;51.484;11.476;2023-05-10T02:31:18;7.98;86.86
49489;SHT31;35382;51.484;11.476;2023-05-10T02:33:01;8.03;86.51
49489;SHT31;35382;51.484;11.476;2023-05-10T02:34:44;7.95;86.83
49489;SHT31;35382;51.484;11.476;2023-05-10T02:36:28;8.07;86.65
49489;SHT31;35382;51.484;11.476;2023-05-10T02:38:10;8.11;86.74
49489;SHT31;35382;51.484;11.476;2023-05-10T02:39:54;8.08;86.08
49489;SHT31;35382;51.484;11.476;2023-05-10T02:41:36;8.23;86.13
49489;SHT31;35382;51.484;11.476;2023-05-10T02:43:18;8.38;84.47
49489;SHT31;35382;51.484;11.476;2023-05-10T02:45:01;8.58;83.04
49489;SHT31;35382;51.484;11.476;2023-05-10T02:46:43;8.55;84.31
49489;SHT31;35382;51.484;11.476;2023-05-10T02:48:24;8.42;85.18
49489;SHT31;35382;51.484;11.476;2023-05-10T02:50:06;8.49;85.54
49489;SHT31;35382;51.484;11.476;2023-05-10T02:51:55;8.57;85.09
49489;SHT31;35382;51.484;11.476;2023-05-10T02:53:38;8.42;85.51
49489;SHT31;35382;51.484;11.476;2023-05-10T02:55:25;8.47;84.45
49489;SHT31;35382;51.484;11.476;2023-05-10T02:57:11;8.52;84.95
49489;SHT31;35382;51.484;11.476;2023-05-10T02:58:55;8.52;84.83
49489;SHT31;35382;51.484;11.476;2023-05-10T03:00:36;8.68;84.00
49489;SHT31;35382;51.484;11.476;2023-05-10T03:02:17;8.64;83.57
49489;SHT31;35382;51.484;11.476;2023-05-10T03:03:58;8.79;83.36
49489;SHT31;35382;51.484;11.476;2023-05-10T03:05:39;8.71;84.56
49489;SHT31;35382;51.484;11.476;2023-05-10T03:07:20;8.72;84.41
49489;SHT31;35382;51.484;11.476;2023-05-10T03:09:03;8.91;84.04
49489;SHT31;35382;51.484;11.476;2023-05-10T03:10:55;8.75;84.74
49489;SHT31;35382;51.484;11.476;2023-05-10T03:15:11;8.55;84.65
49489;SHT31;35382;51.484;11.476;2023-05-10T03:17:04;8.68;84.28
49489;SHT31;35382;51.484;11.476;2023-05-10T03:18:53;8.81;83.64
49489;SHT31;35382;51.484;11.476;2023-05-10T03:20:38;8.93;83.12
49489;SHT31;35382;51.484;11.476;2023-05-10T03:22:25;9.08;82.34
49489;SHT31;35382;51.484;11.476;2023-05-10T03:24:08;9.19;82.11
49489;SHT31;35382;51.484;11.476;2023-05-10T03:25:53;9.25;82.02
49489;SHT31;35382;51.484;11.476;2023-05-10T03:27:35;9.38;80.76
49489;SHT31;35382;51.484;11.476;2023-05-10T03:29:17;9.47;80.99
49489;SHT31;35382;51.484;11.476;2023-05-10T03:30:58;9.49;80.51
49489;SHT31;35382;51.484;11.476;2023-05-10T03:32:40;9.59;79.99
49489;SHT31;35382;51.484;11.476;2023-05-10T03:34:24;9.69;79.80
49489;SHT31;35382;51.484;11.476;2023-05-10T03:36:06;9.72;80.31
49489;SHT31;35382;51.484;11.476;2023-05-10T03:37:47;9.64;80.86
49489;SHT31;35382;51.484;11.476;2023-05-10T03:39:28;9.69;81.35
49489;SHT31;35382;51.484;11.476;2023-05-10T03:41:12;9.74;79.19
49489;SHT31;35382;51.484;11.476;2023-05-10T03:42:53;9.93;78.17
49489;SHT31;35382;51.484;11.476;2023-05-10T03:44:34;10.00;78.47
49489;SHT31;35382;51.484;11.476;2023-05-10T03:46:15;10.04;79.03
49489;SHT31;35382;51.484;11.476;2023-05-10T03:47:57;10.25;76.87
49489;SHT31;35382;51.484;11.476;2023-05-10T03:49:38;10.21;78.10
49489;SHT31;35382;51.484;11.476;2023-05-10T03:51:19;10.47;76.08
49489;SHT31;35382;51.484;11.476;2023-05-10T03:53:00;10.61;76.53
49489;SHT31;35382;51.484;11.476;2023-05-10T03:54:42;10.75;76.17
49489;SHT31;35382;51.484;11.476;2023-05-10T03:56:23;10.95;74.86
49489;SHT31;35382;51.484;11.476;2023-05-10T03:58:04;11.38;71.44
49489;SHT31;35382;51.484;11.476;2023-05-10T03:59:46;11.39;71.60
49489;SHT31;35382;51.484;11.476;2023-05-10T04:01:27;11.42;71.79
49489;SHT31;35382;51.484;11.476;2023-05-10T04:03:08;11.47;72.22
49489;SHT31;35382;51.484;11.476;2023-05-10T04:04:50;11.62;71.07
49489;SHT31;35382;51.484;11.476;2023-05-10T04:06:31;11.50;72.49
49489;SHT31;35382;51.484;11.476;2023-05-10T04:08:12;11.59;72.20
49489;SHT31;35382;51.484;11.476;2023-05-10T04:09:53;11.72;70.98
49489;SHT31;35382;51.484;11.476;2023-05-10T04:11:36;11.97;68.45
49489;SHT31;35382;51.484;11.476;2023-05-10T04:13:20;11.90;69.60
49489;SHT31;35382;51.484;11.476;2023-05-10T04:15:01;11.83;69.38
49489;SHT31;35382;51.484;11.476;2023-05-10T04:16:42;11.77;71.41
49489;SHT31;35382;51.484;11.476;2023-05-10T04:18:23;11.66;70.91
49489;SHT31;35382;51.484;11.476;2023-05-10T04:20:04;11.94;69.40
49489;SHT31;35382;51.484;11.476;2023-05-10T04:21:45;11.97;68.70
49489;SHT31;35382;51.484;11.476;2023-05-10T04:23:27;11.93;68.99
49489;SHT31;35382;51.484;11.476;2023-05-10T04:25:08;11.94;70.15
49489;SHT31;35382;51.484;11.476;2023-05-10T04:26:50;12.04;68.54
49489;SHT31;35382;51.484;11.476;2023-05-10T04:28:30;11.96;69.38
49489;SHT31;35382;51.484;11.476;2023-05-10T04:30:12;11.96;70.52
49489;SHT31;35382;51.484;11.476;2023-05-10T04:31:53;11.96;69.78
49489;SHT31;35382;51.484;11.476;2023-05-10T04:33:34;11.89;69.54
49489;SHT31;35382;51.484;11.476;2023-05-10T04:35:16;11.97;68.99
49489;SHT31;35382;51.484;11.476;2023-05-10T04:36:57;11.97;68.73
49489;SHT31;35382;51.484;11.476;2023-05-10T04:38:37;11.90;69.23
49489;SHT31;35382;51.484;11.476;2023-05-10T04:40:20;11.97;68.89
49489;SHT31;35382;51.484;11.476;2023-05-10T04:42:03;11.94;69.16
49489;SHT31;35382;51.484;11.476;2023-05-10T04:43:44;12.00;68.93
49489;SHT31;35382;51.484;11.476;2023-05-10T04:45:25;11.89;69.48
49489;SHT31;35382;51.484;11.476;2023-05-10T04:47:06;11.91;69.43
49489;SHT31;35382;51.484;11.476;2023-05-10T04:48:47;11.93;69.48
49489;SHT31;35382;51.484;11.476;2023-05-10T04:50:28;11.94;69.98
49489;SHT31;35382;51.484;11.476;2023-05-10T04:52:11;11.86;70.17
49489;SHT31;35382;51.484;11.476;2023-05-10T04:53:52;11.87;70.09
49489;SHT31;35382;51.484;11.476;2023-05-10T04:55:33;12.08;69.59
49489;SHT31;35382;51.484;11.476;2023-05-10T04:57:14;12.16;69.50
49489;SHT31;35382;51.484;11.476;2023-05-10T04:58:55;12.14;69.50
49489;SHT31;35382;51.484;11.476;2023-05-10T05:00:37;12.28;69.42
49489;SHT31;35382;51.484;11.476;2023-05-10T05:02:18;12.27;69.64
49489;SHT31;35382;51.484;11.476;2023-05-10T05:03:59;12.17;68.92
49489;SHT31;35382;51.484;11.476;2023-05-10T05:05:40;12.26;69.30
49489;SHT31;35382;51.484;11.476;2023-05-10T05:07:21;12.21;69.09
49489;SHT31;35382;51.484;11.476;2023-05-10T05:09:03;12.31;69.40
49489;SHT31;35382;51.484;11.476;2023-05-10T05:10:43;12.38;69.01
49489;SHT31;35382;51.484;11.476;2023-05-10T05:12:25;12.42;68.59
49489;SHT31;35382;51.484;11.476;2023-05-10T05:14:05;12.47;68.91
49489;SHT31;35382;51.484;11.476;2023-05-10T05:15:47;12.48;68.63
49489;SHT31;35382;51.484;11.476;2023-05-10T05:17:30;12.50;69.21
49489;SHT31;35382;51.484;11.476;2023-05-10T05:19:11;12.44;69.27
49489;SHT31;35382;51.484;11.476;2023-05-10T05:20:52;12.44;69.63
49489;SHT31;35382;51.484;11.476;2023-05-10T05:22:35;12.47;69.74
49489;SHT31;35382;51.484;11.476;2023-05-10T05:24:16;12.68;68.84
49489;SHT31;35382;51.484;11.476;2023-05-10T05:25:57;12.71;68.86
49489;SHT31;35382;51.484;11.476;2023-05-10T05:27:38;12.77;69.69
49489;SHT31;35382;51.484;11.476;2023-05-10T05:29:19;12.84;68.16
49489;SHT31;35382;51.484;11.476;2023-05-10T05:31:00;12.81;68.87
49489;SHT31;35382;51.484;11.476;2023-05-10T05:32:41;12.92;68.19
49489;SHT31;35382;51.484;11.476;2023-05-10T05:34:23;12.94;69.14
49489;SHT31;35382;51.484;11.476;2023-05-10T05:36:05;13.20;68.05
49489;SHT31;35382;51.484;11.476;2023-05-10T05:37:46;13.04;68.83
49489;SHT31;35382;51.484;11.476;2023-05-10T05:39:27;13.11;68.75
49489;SHT31;35382;51.484;11.476;2023-05-10T05:41:10;13.12;68.24
49489;SHT31;35382;51.484;11.476;2023-05-10T05:42:50;13.26;67.64
49489;SHT31;35382;51.484;11.476;2023-05-10T05:44:31;13.39;67.81
49489;SHT31;35382;51.484;11.476;2023-05-10T05:46:12;13.56;67.69
49489;SHT31;35382;51.484;11.476;2023-05-10T05:47:53;13.60;67.30
49489;SHT31;35382;51.484;11.476;2023-05-10T05:49:34;13.74;67.16
49489;SHT31;35382;51.484;11.476;2023-05-10T05:51:15;13.76;67.36
49489;SHT31;35382;51.484;11.476;2023-05-10T05:52:56;13.69;67.47
49489;SHT31;35382;51.484;11.476;2023-05-10T05:54:37;13.62;67.54
49489;SHT31;35382;51.484;11.476;2023-05-10T05:56:18;13.66;68.28
49489;SHT31;35382;51.484;11.476;2023-05-10T05:58:04;13.55;69.18
49489;SHT31;35382;51.484;11.476;2023-05-10T05:59:45;13.52;68.11
49489;SHT31;35382;51.484;11.476;2023-05-10T06:01:26;13.60;68.06
49489;SHT31;35382;51.484;11.476;2023-05-10T06:03:09;13.63;68.84
49489;SHT31;35382;51.484;11.476;2023-05-10T06:04:50;13.66;68.16
49489;SHT31;35382;51.484;11.476;2023-05-10T06:06:33;13.62;68.80
49489;SHT31;35382;51.484;11.476;2023-05-10T06:08:14;13.58;68.29
49489;SHT31;35382;51.484;11.476;2023-05-10T06:09:57;13.59;69.73
49489;SHT31;35382;51.484;11.476;2023-05-10T06:11:41;13.65;68.67
49489;SHT31;35382;51.484;11.476;2023-05-10T06:13:22;13.69;69.40
49489;SHT31;35382;51.484;11.476;2023-05-10T06:15:03;13.79;69.73
49489;SHT31;35382;51.484;11.476;2023-05-10T06:16:47;13.93;68.51
49489;SHT31;35382;51.484;11.476;2023-05-10T06:18:28;14.00;69.39
49489;SHT31;35382;51.484;11.476;2023-05-10T06:20:13;14.00;68.24
49489;SHT31;35382;51.484;11.476;2023-05-10T06:21:54;14.03;68.64
49489;SHT31;35382;51.484;11.476;2023-05-10T06:23:38;14.03;68.75
49489;SHT31;35382;51.484;11.476;2023-05-10T06:25:19;14.12;70.10
49489;SHT31;35382;51.484;11.476;2023-05-10T06:27:02;14.27;70.58
49489;SHT31;35382;51.484;11.476;2023-05-10T06:28:44;14.44;69.21
49489;SHT31;35382;51.484;11.476;2023-05-10T06:30:30;14.56;68.30
49489;SHT31;35382;51.484;11.476;2023-05-10T06:32:11;14.54;67.46
49489;SHT31;35382;51.484;11.476;2023-05-10T06:33:52;14.64;67.38
49489;SHT31;35382;51.484;11.476;2023-05-10T06:35:34;14.47;67.15
49489;SHT31;35382;51.484;11.476;2023-05-10T06:37:14;14.33;67.58
49489;SHT31;35382;51.484;11.476;2023-05-10T06:38:56;14.36;67.79
49489;SHT31;35382;51.484;11.476;2023-05-10T06:40:37;14.48;68.35
49489;SHT31;35382;51.484;11.476;2023-05-10T06:42:21;14.48;67.52
49489;SHT31;35382;51.484;11.476;2023-05-10T06:44:02;14.60;67.59
49489;SHT31;35382;51.484;11.476;2023-05-10T06:45:44;14.70;67.50
49489;SHT31;35382;51.484;11.476;2023-05-10T06:47:25;14.73;67.04
49489;SHT31;35382;51.484;11.476;2023-05-10T06:49:06;14.60;66.98
49489;SHT31;35382;51.484;11.476;2023-05-10T06:50:47;14.70;67.36
49489;SHT31;35382;51.484;11.476;2023-05-10T06:52:28;14.75;67.77
49489;SHT31;35382;51.484;11.476;2023-05-10T06:54:10;14.70;67.38
49489;SHT31;35382;51.484;11.476;2023-05-10T06:55:57;14.71;69.37
49489;SHT31;35382;51.484;11.476;2023-05-10T06:57:38;14.83;68.19
49489;SHT31;35382;51.484;11.476;2023-05-10T06:59:19;14.78;67.93
49489;SHT31;35382;51.484;11.476;2023-05-10T07:01:06;14.59;67.37
49489;SHT31;35382;51.484;11.476;2023-05-10T07:02:47;14.67;67.85
49489;SHT31;35382;51.484;11.476;2023-05-10T07:04:35;14.70;69.93
49489;SHT31;35382;51.484;11.476;2023-05-10T07:06:16;14.84;67.58
49489;SHT31;35382;51.484;11.476;2023-05-10T07:07:57;14.85;67.80
49489;SHT31;35382;51.484;11.476;2023-05-10T07:09:38;14.98;68.65
49489;SHT31;35382;51.484;11.476;2023-05-10T07:11:19;15.12;69.55
49489;SHT31;35382;51.484;11.476;2023-05-10T07:13:00;15.15;68.64
49489;SHT31;35382;51.484;11.476;2023-05-10T07:14:45;15.41;67.97
49489;SHT31;35382;51.484;11.476;2023-05-10T07:16:29;15.55;66.74
49489;SHT31;35382;51.484;11.476;2023-05-10T07:18:13;15.55;67.36
49489;SHT31;35382;51.484;11.476;2023-05-10T07:19:54;15.58;67.51
49489;SHT31;35382;51.484;11.476;2023-05-10T07:21:35;15.51;69.15
49489;SHT31;35382;51.484;11.476;2023-05-10T07:23:20;15.62;68.90
49489;SHT31;35382;51.484;11.476;2023-05-10T07:25:01;15.65;69.09
49489;SHT31;35382;51.484;11.476;2023-05-10T07:26:43;15.67;68.05
49489;SHT31;35382;51.484;11.476;2023-05-10T07:28:27;15.53;70.10
49489;SHT31;35382;51.484;11.476;2023-05-10T07:30:08;15.58;70.10
49489;SHT31;35382;51.484;11.476;2023-05-10T07:31:49;15.51;70.14
49489;SHT31;35382;51.484;11.476;2023-05-10T07:33:30;15.53;69.91
49489;SHT31;35382;51.484;11.476;2023-05-10T07:35:11;15.55;70.52
49489;SHT31;35382;51.484;11.476;2023-05-10T07:36:52;15.46;70.60
49489;SHT31;35382;51.484;11.476;2023-05-10T07:38:33;15.35;71.06
49489;SHT31;35382;51.484;11.476;2023-05-10T07:40:16;15.34;70.93
49489;SHT31;35382;51.484;11.476;2023-05-10T07:41:57;15.43;71.62
49489;SHT31;35382;51.484;11.476;2023-05-10T07:43:38;15.38;73.33
49489;SHT31;35382;51.484;11.476;2023-05-10T07:45:19;15.18;72.69
49489;SHT31;35382;51.484;11.476;2023-05-10T07:47:02;15.14;73.64
49489;SHT31;35382;51.484;11.476;2023-05-10T07:48:42;15.29;73.77
49489;SHT31;35382;51.484;11.476;2023-05-10T07:50:23;15.29;73.23
49489;SHT31;35382;51.484;11.476;2023-05-10T07:52:04;15.32;74.95
49489;SHT31;35382;51.484;11.476;2023-05-10T07:53:45;15.31;73.94
49489;SHT31;35382;51.484;11.476;2023-05-10T07:55:26;15.36;74.24
49489;SHT31;35382;51.484;11.476;2023-05-10T07:57:13;15.48;75.25
49489;SHT31;35382;51.484;11.476;2023-05-10T07:58:56;15.56;76.40
49489;SHT31;35382;51.484;11.476;2023-05-10T08:00:37;15.65;75.35
49489;SHT31;35382;51.484;11.476;2023-05-10T08:02:20;15.53;74.74
49489;SHT31;35382;51.484;11.476;2023-05-10T08:04:01;15.46;74.78
49489;SHT31;35382;51.484;11.476;2023-05-10T08:05:42;15.59;75.23
49489;SHT31;35382;51.484;11.476;2023-05-10T08:07:27;15.69;76.22
49489;SHT31;35382;51.484;11.476;2023-05-10T08:09:08;15.48;76.06
49489;SHT31;35382;51.484;11.476;2023-05-10T08:10:56;15.41;76.67
49489;SHT31;35382;51.484;11.476;2023-05-10T08:12:38;15.41;77.29
49489;SHT31;35382;51.484;11.476;2023-05-10T08:14:20;15.45;77.15
49489;SHT31;35382;51.484;11.476;2023-05-10T08:16:01;15.39;76.44
49489;SHT31;35382;51.484;11.476;2023-05-10T08:17:42;15.34;76.89
49489;SHT31;35382;51.484;11.476;2023-05-10T08:19:23;15.48;77.31
49489;SHT31;35382;51.484;11.476;2023-05-10T08:21:05;15.55;78.30
49489;SHT31;35382;51.484;11.476;2023-05-10T08:22:47;15.48;78.21
49489;SHT31;35382;51.484;11.476;2023-05-10T08:24:30;15.46;77.86
49489;SHT31;35382;51.484;11.476;2023-05-10T08:26:11;15.42;77.43
49489;SHT31;35382;51.484;11.476;2023-05-10T08:27:52;15.41;77.88
49489;SHT31;35382;51.484;11.476;2023-05-10T08:29:33;15.31;77.32
49489;SHT31;35382;51.484;11.476;2023-05-10T08:31:14;15.29;77.97
49489;SHT31;35382;51.484;11.476;2023-05-10T08:32:56;15.51;79.43
49489;SHT31;35382;51.484;11.476;2023-05-10T08:34:37;15.46;78.67
49489;SHT31;35382;51.484;11.476;2023-05-10T08:36:18;15.56;80.23
49489;SHT31;35382;51.484;11.476;2023-05-10T08:38:05;15.49;79.28
49489;SHT31;35382;51.484;11.476;2023-05-10T08:39:48;15.51;79.83
49489;SHT31;35382;51.484;11.476;2023-05-10T08:41:29;15.29;79.44
49489;SHT31;35382;51.484;11.476;2023-05-10T08:43:12;15.27;80.96
49489;SHT31;35382;51.484;11.476;2023-05-10T08:44:56;15.22;82.19
49489;SHT31;35382;51.484;11.476;2023-05-10T08:46:46;15.18;81.11
49489;SHT31;35382;51.484;11.476;2023-05-10T08:48:28;15.04;80.68
49489;SHT31;35382;51.484;11.476;2023-05-10T08:50:10;14.94;81.13
49489;SHT31;35382;51.484;11.476;2023-05-10T08:51:54;14.96;81.80
49489;SHT31;35382;51.484;11.476;2023-05-10T08:53:36;14.96;81.25
49489;SHT31;35382;51.484;11.476;2023-05-10T08:55:23;15.09;83.61
49489;SHT31;35382;51.484;11.476;2023-05-10T08:57:05;15.12;82.58
49489;SHT31;35382;51.484;11.476;2023-05-10T08:58:46;15.07;82.70
49489;SHT31;35382;51.484;11.476;2023-05-10T09:00:29;15.02;82.48
49489;SHT31;35382;51.484;11.476;2023-05-10T09:02:18;15.02;83.33
49489;SHT31;35382;51.484;11.476;2023-05-10T09:04:04;15.09;83.25
49489;SHT31;35382;51.484;11.476;2023-05-10T09:05:45;15.07;84.36
49489;SHT31;35382;51.484;11.476;2023-05-10T09:07:26;15.08;83.59
49489;SHT31;35382;51.484;11.476;2023-05-10T09:09:08;15.14;84.16
49489;SHT31;35382;51.484;11.476;2023-05-10T09:10:52;15.02;83.46
49489;SHT31;35382;51.484;11.476;2023-05-10T09:12:35;15.01;84.21
49489;SHT31;35382;51.484;11.476;2023-05-10T09:14:16;14.98;83.45
49489;SHT31;35382;51.484;11.476;2023-05-10T09:15:58;15.01;84.01
49489;SHT31;35382;51.484;11.476;2023-05-10T09:17:39;14.98;84.18
49489;SHT31;35382;51.484;11.476;2023-05-10T09:19:21;14.96;85.11
49489;SHT31;35382;51.484;11.476;2023-05-10T09:21:03;14.94;84.71
49489;SHT31;35382;51.484;11.476;2023-05-10T09:22:46;14.85;84.05
49489;SHT31;35382;51.484;11.476;2023-05-10T09:24:29;14.95;84.00
49489;SHT31;35382;51.484;11.476;2023-05-10T09:26:10;15.01;83.80
49489;SHT31;35382;51.484;11.476;2023-05-10T09:27:54;15.08;84.26
49489;SHT31;35382;51.484;11.476;2023-05-10T09:29:42;15.15;85.02
49489;SHT31;35382;51.484;11.476;2023-05-10T09:31:23;15.08;84.45
49489;SHT31;35382;51.484;11.476;2023-05-10T09:33:06;14.99;84.92
49489;SHT31;35382;51.484;11.476;2023-05-10T09:34:49;15.04;85.37
49489;SHT31;35382;51.484;11.476;2023-05-10T09:36:30;14.99;85.71
49489;SHT31;35382;51.484;11.476;2023-05-10T09:38:11;14.88;85.47
49489;SHT31;35382;51.484;11.476;2023-05-10T09:39:54;14.87;85.68
49489;SHT31;35382;51.484;11.476;2023-05-10T09:41:35;14.95;85.96
49489;SHT31;35382;51.484;11.476;2023-05-10T09:43:17;14.87;85.41
49489;SHT31;35382;51.484;11.476;2023-05-10T09:45:04;14.89;85.82
49489;SHT31;35382;51.484;11.476;2023-05-10T09:46:50;14.75;85.56
49489;SHT31;35382;51.484;11.476;2023-05-10T09:48:31;14.78;86.33
49489;SHT31;35382;51.484;11.476;2023-05-10T09:50:12;14.75;84.85
49489;SHT31;35382;51.484;11.476;2023-05-10T09:52:04;14.78;86.69
49489;SHT31;35382;51.484;11.476;2023-05-10T09:53:47;14.73;86.27
49489;SHT31;35382;51.484;11.476;2023-05-10T09:57:23;14.87;86.07
49489;SHT31;35382;51.484;11.476;2023-05-10T09:59:05;14.85;86.21
49489;SHT31;35382;51.484;11.476;2023-05-10T10:00:46;14.92;86.96
49489;SHT31;35382;51.484;11.476;2023-05-10T10:02:30;14.87;86.30
49489;SHT31;35382;51.484;11.476;2023-05-10T10:04:11;14.99;86.53
49489;SHT31;35382;51.484;11.476;2023-05-10T10:05:57;15.01;85.64
49489;SHT31;35382;51.484;11.476;2023-05-10T10:07:41;15.08;85.98
49489;SHT31;35382;51.484;11.476;2023-05-10T10:09:22;15.12;85.77
49489;SHT31;35382;51.484;11.476;2023-05-10T10:11:08;15.28;86.04
49489;SHT31;35382;51.484;11.476;2023-05-10T10:12:59;15.22;85.30
49489;SHT31;35382;51.484;11.476;2023-05-10T10:14:41;15.18;85.68
49489;SHT31;35382;51.484;11.476;2023-05-10T10:16:22;15.18;84.60
49489;SHT31;35382;51.484;11.476;2023-05-10T10:18:05;15.19;85.66
49489;SHT31;35382;51.484;11.476;2023-05-10T10:19:46;15.19;87.01
49489;SHT31;35382;51.484;11.476;2023-05-10T10:21:28;15.22;86.81
49489;SHT31;35382;51.484;11.476;2023-05-10T10:23:10;15.24;86.48
49489;SHT31;35382;51.484;11.476;2023-05-10T10:24:51;15.21;86.15
49489;SHT31;35382;51.484;11.476;2023-05-10T10:26:34;15.24;85.69
49489;SHT31;35382;51.484;11.476;2023-05-10T10:28:51;15.24;84.95
49489;SHT31;35382;51.484;11.476;2023-05-10T10:30:46;15.43;85.88
49489;SHT31;35382;51.484;11.476;2023-05-10T10:32:37;15.38;85.40
49489;SHT31;35382;51.484;11.476;2023-05-10T10:34:26;15.39;85.47
49489;SHT31;35382;51.484;11.476;2023-05-10T10:36:08;15.38;86.14
49489;SHT31;35382;51.484;11.476;2023-05-10T10:37:50;15.28;86.18
49489;SHT31;35382;51.484;11.476;2023-05-10T10:39:31;15.36;87.28
49489;SHT31;35382;51.484;11.476;2023-05-10T10:41:28;15.22;86.65
49489;SHT31;35382;51.484;11.476;2023-05-10T10:43:23;15.24;86.94
49489;SHT31;35382;51.484;11.476;2023-05-10T10:45:13;15.39;86.39
49489;SHT31;35382;51.484;11.476;2023-05-10T10:49:10;15.29;85.49
49489;SHT31;35382;51.484;11.476;2023-05-10T10:50:57;15.19;86.43
49489;SHT31;35382;51.484;11.476;2023-05-10T10:52:43;15.34;86.37
49489;SHT31;35382;51.484;11.476;2023-05-10T10:54:28;15.49;86.91
49489;SHT31;35382;51.484;11.476;2023-05-10T10:56:12;15.36;86.96
49489;SHT31;35382;51.484;11.476;2023-05-10T10:57:55;15.31;87.46
49489;SHT31;35382;51.484;11.476;2023-05-10T10:59:44;15.19;87.43
49489;SHT31;35382;51.484;11.476;2023-05-10T11:01:35;15.17;87.78